Terminal Aerodrome Forecast
Issued by NWS Shreveport, LA

Home | Current Version | Previous Version | Text Only | Print | Product List | Glossary On
Versions: 1 2 3 4 5 6 7 8 9 10 11 12 13 14 15 16
329
FTUS44 KSHV 252320
TAFGGG
TAF
KGGG 252320Z 2600/2624 11004KT P6SM VCSH SCT050
     FM261000 35004KT 5SM BR BKN015
     FM261500 02009KT P6SM VCSH OVC015
     FM262100 36005KT P6SM BKN030=

USA.gov is the U.S. government's official web portal to all federal, state and local government web resources and services.